createdAt,value
2022-11-26T00:01:19.192Z,29.00
2022-11-26T00:04:04.628Z,28.50
2022-11-26T00:06:49.782Z,31.23
2022-11-26T00:09:34.686Z,31.13
2022-11-26T00:12:21.341Z,29.60
2022-11-26T00:15:15.952Z,28.47
2022-11-26T00:18:01.157Z,29.43
2022-11-26T00:20:50.344Z,27.80
2022-11-26T00:23:35.548Z,29.60
2022-11-26T00:26:22.738Z,30.23
2022-11-26T00:29:10.145Z,32.27
2022-11-26T00:31:55.530Z,31.53
2022-11-26T00:34:40.867Z,33.17
2022-11-26T00:37:41.757Z,32.73
2022-11-26T00:40:31.976Z,32.60
2022-11-26T00:43:18.116Z,34.30
2022-11-26T00:46:03.328Z,33.97
2022-11-26T00:48:48.865Z,32.37
2022-11-26T00:51:34.752Z,35.37
2022-11-26T00:54:21.511Z,33.80
2022-11-26T00:57:10.583Z,33.60
2022-11-26T00:59:55.868Z,37.37
2022-11-26T01:02:40.671Z,34.70
2022-11-26T01:05:28.537Z,40.87
2022-11-26T01:08:29.571Z,25.73
2022-11-26T01:11:19.134Z,23.37
2022-11-26T01:14:04.260Z,26.03
2022-11-26T01:16:56.723Z,26.40
2022-11-26T01:19:41.832Z,26.50
2022-11-26T01:22:26.732Z,24.13
2022-11-26T01:25:11.995Z,24.10
2022-11-26T01:27:57.635Z,26.23
2022-11-26T01:30:43.674Z,17.40
2022-11-26T01:33:28.790Z,17.90
2022-11-26T01:36:27.453Z,17.47
2022-11-26T01:39:18.847Z,17.37
2022-11-26T01:42:26.389Z,17.00
2022-11-26T01:45:17.041Z,15.47
2022-11-26T01:48:02.319Z,17.07
2022-11-26T01:50:52.300Z,16.13
2022-11-26T01:53:43.675Z,20.57
2022-11-26T01:56:37.236Z,18.73
2022-11-26T01:59:26.885Z,18.53
2022-11-26T02:02:12.043Z,16.47
2022-11-26T02:05:29.863Z,21.23
2022-11-26T02:08:14.891Z,22.47
2022-11-26T02:11:02.484Z,13.33
2022-11-26T02:13:51.740Z,16.37
2022-11-26T02:16:49.068Z,20.13
2022-11-26T02:20:04.968Z,23.60
2022-11-26T02:22:50.080Z,23.33
2022-11-26T02:26:05.751Z,23.07
2022-11-26T02:29:12.094Z,23.23
2022-11-26T02:32:08.392Z,12.70
2022-11-26T02:35:05.624Z,14.97
2022-11-26T02:38:09.761Z,15.10
2022-11-26T02:40:54.909Z,13.73
2022-11-26T02:43:40.450Z,13.37
2022-11-26T02:46:25.929Z,15.63
2022-11-26T02:49:14.719Z,19.43
2022-11-26T02:52:03.244Z,20.50
2022-11-26T02:54:50.858Z,16.80
2022-11-26T02:57:45.405Z,12.97
2022-11-26T03:00:33.826Z,16.10
2022-11-26T03:03:27.881Z,13.13
2022-11-26T03:06:14.947Z,22.40
2022-11-26T03:09:00.882Z,25.43
2022-11-26T03:11:45.975Z,25.90
2022-11-26T03:14:31.453Z,18.17
2022-11-26T03:17:16.939Z,21.33
2022-11-26T03:20:02.416Z,21.27
2022-11-26T03:22:47.836Z,18.03
2022-11-26T03:25:34.564Z,23.60
2022-11-26T03:28:19.920Z,23.93
2022-11-26T03:31:05.206Z,23.60
2022-11-26T03:33:50.390Z,27.97
2022-11-26T03:36:35.408Z,29.93
2022-11-26T03:39:20.284Z,29.80
2022-11-26T03:42:05.469Z,31.33
2022-11-26T03:44:50.519Z,30.30
2022-11-26T03:47:35.431Z,32.90
2022-11-26T03:50:20.476Z,33.83
2022-11-26T03:53:05.525Z,32.20
2022-11-26T03:55:50.589Z,29.97
2022-11-26T03:58:35.502Z,31.33
2022-11-26T04:01:21.206Z,30.10
2022-11-26T04:04:06.659Z,30.63
2022-11-26T04:06:51.647Z,31.27
2022-11-26T04:09:36.846Z,31.53
2022-11-26T04:12:22.215Z,33.57
2022-11-26T04:15:09.329Z,29.87
2022-11-26T04:17:54.703Z,34.77
2022-11-26T04:20:39.716Z,32.00
2022-11-26T04:23:24.603Z,31.83
2022-11-26T04:26:09.891Z,36.37
2022-11-26T04:28:54.991Z,30.27
2022-11-26T04:31:39.797Z,36.53
2022-11-26T04:34:25.257Z,40.70
2022-11-26T04:37:10.252Z,37.73
2022-11-26T04:39:55.667Z,41.23
2022-11-26T04:42:41.055Z,37.10
2022-11-26T04:45:26.871Z,41.93
2022-11-26T04:48:12.304Z,44.83
2022-11-26T04:50:57.596Z,44.87
2022-11-26T04:53:42.618Z,49.10
2022-11-26T04:56:27.836Z,43.37
2022-11-26T04:59:13.194Z,43.37
2022-11-26T05:01:58.156Z,51.20
2022-11-26T05:04:43.344Z,48.13
2022-11-26T05:07:28.603Z,47.70
2022-11-26T05:10:13.853Z,49.20
2022-11-26T05:12:59.560Z,50.67
2022-11-26T05:15:44.843Z,46.27
2022-11-26T05:18:30.314Z,52.37
2022-11-26T05:21:15.590Z,51.73
2022-11-26T05:24:00.366Z,55.87
2022-11-26T05:26:45.879Z,63.97
2022-11-26T05:29:31.064Z,51.23
2022-11-26T05:32:16.508Z,55.70
2022-11-26T05:35:01.775Z,58.90
2022-11-26T05:37:46.733Z,52.60
2022-11-26T05:40:32.513Z,51.67
2022-11-26T05:43:17.845Z,49.50
2022-11-26T05:46:07.518Z,56.17
2022-11-26T05:48:52.799Z,65.77
2022-11-26T05:51:38.223Z,58.33
2022-11-26T05:54:23.323Z,63.03
2022-11-26T05:57:08.529Z,56.97
2022-11-26T05:59:53.348Z,70.23
2022-11-26T06:02:38.907Z,60.93
2022-11-26T06:05:24.251Z,63.67
2022-11-26T06:08:09.392Z,62.20
2022-11-26T06:10:55.061Z,61.70
2022-11-26T06:13:40.382Z,53.80
2022-11-26T06:16:26.218Z,60.43
2022-11-26T06:19:11.891Z,55.97
2022-11-26T06:21:57.052Z,76.80
2022-11-26T06:24:42.326Z,105.07
2022-11-26T06:27:27.315Z,59.97
2022-11-26T06:30:13.341Z,53.03
2022-11-26T06:32:58.958Z,82.07
2022-11-26T06:35:44.382Z,48.93
2022-11-26T06:38:29.355Z,73.87
2022-11-26T06:41:15.184Z,47.97
2022-11-26T06:44:00.492Z,55.53
2022-11-26T06:46:45.764Z,44.83
2022-11-26T06:49:30.742Z,44.50
2022-11-26T06:52:16.074Z,73.37
2022-11-26T06:55:01.823Z,48.47
2022-11-26T06:57:51.632Z,45.90
2022-11-26T07:00:37.092Z,43.97
2022-11-26T07:03:26.212Z,53.40
2022-11-26T07:06:16.323Z,47.67
2022-11-26T07:09:07.121Z,47.47
2022-11-26T07:11:52.032Z,44.37
2022-11-26T07:14:37.353Z,50.33
2022-11-26T07:17:22.968Z,37.47
2022-11-26T07:20:08.704Z,43.40
2022-11-26T07:22:53.827Z,41.70
2022-11-26T07:25:39.222Z,43.43
2022-11-26T07:28:24.633Z,40.57
2022-11-26T07:31:16.492Z,41.10
2022-11-26T07:34:02.394Z,39.83
2022-11-26T07:36:47.708Z,43.77
2022-11-26T07:39:33.332Z,40.27
2022-11-26T07:42:18.615Z,40.90
2022-11-26T07:45:03.750Z,41.70
2022-11-26T07:47:48.909Z,47.43
2022-11-26T07:50:34.606Z,41.43
2022-11-26T07:53:19.880Z,40.07
2022-11-26T07:56:05.668Z,38.40
2022-11-26T07:58:50.680Z,38.43
2022-11-26T08:01:36.752Z,38.07
2022-11-26T08:04:22.062Z,38.17
2022-11-26T08:07:07.002Z,35.77
2022-11-26T08:09:52.377Z,37.03
2022-11-26T08:12:37.358Z,39.67
2022-11-26T08:15:25.777Z,42.50
2022-11-26T08:18:12.763Z,38.30
2022-11-26T08:20:58.647Z,38.50
2022-11-26T08:23:43.944Z,40.53
2022-11-26T08:26:35.932Z,38.87
2022-11-26T08:29:23.531Z,41.77
2022-11-26T08:32:09.837Z,40.33
2022-11-26T08:34:59.646Z,38.20
2022-11-26T08:37:44.780Z,35.87
2022-11-26T08:40:30.881Z,37.40
2022-11-26T08:43:19.201Z,36.60
2022-11-26T08:46:04.905Z,35.57
2022-11-26T08:48:58.384Z,37.83
2022-11-26T08:51:43.903Z,33.20
2022-11-26T08:54:29.418Z,32.83
2022-11-26T08:57:14.735Z,30.73
2022-11-26T09:00:00.105Z,31.10
2022-11-26T09:02:45.022Z,30.43
2022-11-26T09:05:31.343Z,29.63
2022-11-26T09:08:16.749Z,27.90
2022-11-26T09:11:01.914Z,28.10
2022-11-26T09:13:47.439Z,27.43
2022-11-26T09:16:33.156Z,27.70
2022-11-26T09:19:19.284Z,24.83
2022-11-26T09:22:04.754Z,26.47
2022-11-26T09:24:50.436Z,27.90
2022-11-26T09:27:35.472Z,26.47
2022-11-26T09:30:20.592Z,27.20
2022-11-26T09:33:05.565Z,27.50
2022-11-26T09:35:51.040Z,25.40
2022-11-26T09:38:37.213Z,25.23
2022-11-26T09:41:38.591Z,25.90
2022-11-26T09:45:02.436Z,24.63
2022-11-26T09:47:51.937Z,24.40
2022-11-26T09:50:36.930Z,24.37
2022-11-26T09:53:26.196Z,24.50
2022-11-26T09:56:18.550Z,24.03
2022-11-26T09:59:06.859Z,22.53
2022-11-26T10:01:52.001Z,23.97
2022-11-26T10:04:37.447Z,22.40
2022-11-26T10:07:25.699Z,22.37
2022-11-26T10:10:31.242Z,21.73
2022-11-26T10:13:26.505Z,23.00
2022-11-26T10:16:27.561Z,22.23
2022-11-26T10:19:28.432Z,22.43
2022-11-26T10:22:34.315Z,23.07
2022-11-26T10:25:22.714Z,20.27
2022-11-26T10:28:33.152Z,21.03
2022-11-26T10:31:24.476Z,20.53
2022-11-26T10:34:46.700Z,19.13
2022-11-26T10:37:32.356Z,19.50
2022-11-26T10:40:26.601Z,17.63
2022-11-26T10:43:24.053Z,17.47
2022-11-26T10:46:29.161Z,17.33
2022-11-26T10:49:16.869Z,16.47
2022-11-26T10:52:07.998Z,16.63
2022-11-26T10:55:20.802Z,17.00
2022-11-26T10:58:14.626Z,17.37
2022-11-26T11:01:02.964Z,16.30
2022-11-26T11:04:10.287Z,16.43
2022-11-26T11:06:56.122Z,16.63
2022-11-26T11:09:41.406Z,16.53
2022-11-26T11:12:26.808Z,16.23
2022-11-26T11:15:18.226Z,15.63
2022-11-26T11:18:06.578Z,15.33
2022-11-26T11:20:59.319Z,15.03
2022-11-26T11:24:07.779Z,14.87
2022-11-26T11:26:53.509Z,15.90
2022-11-26T11:29:39.328Z,14.77
2022-11-26T11:32:35.504Z,16.03
2022-11-26T11:35:29.891Z,15.37
2022-11-26T11:38:29.835Z,15.17
2022-11-26T11:41:43.150Z,15.87
2022-11-26T11:44:50.964Z,14.57
2022-11-26T11:47:43.762Z,15.13
2022-11-26T11:50:42.097Z,16.13
2022-11-26T11:53:49.985Z,15.10
2022-11-26T11:57:03.425Z,16.07
2022-11-26T11:59:51.307Z,14.47
2022-11-26T12:02:47.031Z,16.63
2022-11-26T12:05:54.048Z,16.30
2022-11-26T12:08:45.302Z,16.23
2022-11-26T12:11:34.689Z,15.90
2022-11-26T12:14:38.912Z,14.87
2022-11-26T12:17:53.994Z,16.03
2022-11-26T12:21:10.188Z,15.00
2022-11-26T12:23:57.795Z,16.23
2022-11-26T12:26:51.028Z,15.43
2022-11-26T12:29:47.353Z,15.43
2022-11-26T12:32:51.652Z,14.73
2022-11-26T12:35:43.197Z,15.43
2022-11-26T12:38:38.338Z,15.33
2022-11-26T12:41:31.758Z,15.73
2022-11-26T12:44:23.329Z,14.50
2022-11-26T12:47:14.558Z,12.93
2022-11-26T12:50:02.582Z,14.33
2022-11-26T12:53:03.451Z,13.93
2022-11-26T12:55:48.476Z,13.17
2022-11-26T12:58:52.555Z,13.23
2022-11-26T13:01:39.386Z,12.73
2022-11-26T13:04:44.058Z,12.87
2022-11-26T13:07:38.577Z,12.07
2022-11-26T13:10:50.880Z,12.40
2022-11-26T13:13:46.915Z,12.87
2022-11-26T13:16:47.659Z,12.47
2022-11-26T13:19:45.091Z,11.53
2022-11-26T13:23:08.558Z,11.97
2022-11-26T13:26:28.206Z,9.90
2022-11-26T13:29:31.864Z,10.27
2022-11-26T13:32:32.774Z,11.13
2022-11-26T13:35:26.906Z,10.43
2022-11-26T13:38:27.163Z,10.97
2022-11-26T13:41:18.547Z,10.73
2022-11-26T13:44:32.261Z,9.57
2022-11-26T13:47:43.739Z,9.37
2022-11-26T13:50:33.539Z,8.90
2022-11-26T13:53:27.123Z,10.30
2022-11-26T13:56:13.419Z,9.83
2022-11-26T13:59:04.998Z,9.63
2022-11-26T14:01:50.309Z,10.27
2022-11-26T14:04:35.562Z,10.90
2022-11-26T14:07:21.018Z,10.13
2022-11-26T14:10:28.648Z,10.43
2022-11-26T14:13:14.385Z,9.83
2022-11-26T14:16:08.855Z,9.93
2022-11-26T14:18:55.994Z,10.80
2022-11-26T14:22:09.103Z,10.53
2022-11-26T14:24:57.813Z,10.03
2022-11-26T14:27:55.076Z,9.63
2022-11-26T14:30:40.528Z,9.87
2022-11-26T14:33:28.136Z,10.20
2022-11-26T14:36:22.557Z,9.97
2022-11-26T14:39:15.172Z,8.77
2022-11-26T14:42:05.675Z,9.13
2022-11-26T14:45:06.742Z,9.83
2022-11-26T14:47:52.474Z,8.97
2022-11-26T14:50:37.730Z,10.47
2022-11-26T14:53:30.191Z,9.93
2022-11-26T14:56:18.794Z,11.03
2022-11-26T14:59:05.380Z,10.33
2022-11-26T15:01:50.389Z,9.80
2022-11-26T15:04:36.088Z,10.80
2022-11-26T15:07:25.299Z,10.33
2022-11-26T15:10:15.174Z,10.03
2022-11-26T15:13:13.604Z,9.80
2022-11-26T15:16:00.959Z,9.10
2022-11-26T15:18:46.263Z,9.10
2022-11-26T15:21:31.734Z,9.43
2022-11-26T15:24:20.280Z,10.43
2022-11-26T15:27:06.114Z,11.10
2022-11-26T15:29:51.310Z,10.27
2022-11-26T15:32:36.817Z,11.00
2022-11-26T15:35:22.304Z,10.57
2022-11-26T15:38:18.167Z,9.70
2022-11-26T15:41:16.959Z,10.23
2022-11-26T15:44:02.361Z,10.30
2022-11-26T15:46:51.238Z,10.53
2022-11-26T15:49:40.516Z,9.67
2022-11-26T15:52:31.225Z,9.17
2022-11-26T15:55:27.796Z,9.90
2022-11-26T15:58:20.386Z,10.13
2022-11-26T16:01:15.932Z,10.47
2022-11-26T16:04:01.677Z,10.10
2022-11-26T16:06:46.947Z,10.30
2022-11-26T16:09:32.654Z,9.70
2022-11-26T16:12:33.352Z,11.20
2022-11-26T16:15:21.673Z,10.87
2022-11-26T16:18:16.174Z,11.37
2022-11-26T16:21:29.090Z,11.33
2022-11-26T16:24:26.125Z,10.10
2022-11-26T16:27:17.235Z,10.63
2022-11-26T16:30:14.036Z,10.30
2022-11-26T16:32:59.572Z,10.87
2022-11-26T16:35:46.502Z,11.47
2022-11-26T16:38:32.246Z,11.63
2022-11-26T16:41:19.664Z,12.30
2022-11-26T16:44:04.984Z,12.87
2022-11-26T16:46:51.300Z,11.17
2022-11-26T16:49:36.438Z,10.90
2022-11-26T16:52:22.171Z,10.87
2022-11-26T16:55:11.209Z,11.80
2022-11-26T16:57:59.887Z,11.83
2022-11-26T17:00:45.565Z,12.70
2022-11-26T17:03:30.778Z,12.13
2022-11-26T17:06:20.490Z,11.00
2022-11-26T17:09:05.535Z,15.87
2022-11-26T17:11:50.562Z,10.53
2022-11-26T17:14:35.467Z,11.40
2022-11-26T17:17:25.282Z,11.60
2022-11-26T17:20:15.316Z,11.30
2022-11-26T17:23:00.252Z,12.27
2022-11-26T17:25:49.751Z,14.37
2022-11-26T17:28:35.008Z,13.10
2022-11-26T17:31:20.474Z,11.97
2022-11-26T17:34:05.706Z,11.20
2022-11-26T17:36:53.044Z,12.53
2022-11-26T17:39:38.171Z,11.90
2022-11-26T17:42:23.732Z,12.13
2022-11-26T17:45:09.916Z,12.93
2022-11-26T17:47:55.244Z,12.83
2022-11-26T17:50:40.669Z,13.00
2022-11-26T17:53:26.090Z,13.50
2022-11-26T17:56:22.288Z,12.83
2022-11-26T17:59:07.419Z,13.50
2022-11-26T18:03:47.981Z,14.27
2022-11-26T18:06:58.255Z,15.03
2022-11-26T18:09:43.867Z,13.73
2022-11-26T18:12:28.960Z,13.80
2022-11-26T18:15:25.648Z,12.30
2022-11-26T18:18:10.733Z,12.50
2022-11-26T18:20:55.599Z,13.00
2022-11-26T18:23:40.458Z,12.30
2022-11-26T18:26:26.109Z,12.30
2022-11-26T18:29:11.831Z,12.20
2022-11-26T18:31:57.213Z,12.40
2022-11-26T18:34:42.497Z,12.47
2022-11-26T18:37:27.773Z,12.93
2022-11-26T18:40:16.494Z,13.43
2022-11-26T18:43:01.639Z,13.23
2022-11-26T18:45:46.724Z,12.67
2022-11-26T18:48:34.408Z,12.67
2022-11-26T18:51:19.471Z,13.50
2022-11-26T18:54:04.709Z,14.37
2022-11-26T18:56:50.063Z,13.60
2022-11-26T18:59:35.424Z,13.37
2022-11-26T19:02:20.275Z,12.17
2022-11-26T19:05:05.900Z,12.27
2022-11-26T19:07:50.960Z,12.47
2022-11-26T19:10:37.413Z,12.80
2022-11-26T19:13:22.328Z,12.37
2022-11-26T19:16:15.836Z,13.03
2022-11-26T19:19:02.162Z,13.80
2022-11-26T19:21:47.045Z,13.13
2022-11-26T19:24:32.303Z,14.20
2022-11-26T19:27:17.154Z,15.10
2022-11-26T19:30:02.293Z,15.03
2022-11-26T19:32:47.365Z,16.13
2022-11-26T19:35:33.016Z,18.03
2022-11-26T19:38:18.452Z,17.23
2022-11-26T19:41:03.876Z,16.07
2022-11-26T19:43:49.155Z,14.60
2022-11-26T19:46:36.886Z,14.27
2022-11-26T19:49:21.950Z,14.03
2022-11-26T19:52:07.305Z,14.77
2022-11-26T19:54:52.229Z,15.43
2022-11-26T19:57:37.177Z,17.50
2022-11-26T20:00:22.676Z,18.17
2022-11-26T20:03:08.037Z,20.17
2022-11-26T20:05:53.687Z,18.93
2022-11-26T20:08:38.605Z,17.30
2022-11-26T20:11:24.035Z,14.47
2022-11-26T20:14:09.150Z,16.23
2022-11-26T20:16:59.441Z,16.63
2022-11-26T20:19:46.462Z,17.43
2022-11-26T20:22:31.944Z,17.63
2022-11-26T20:25:16.900Z,18.33
2022-11-26T20:28:02.960Z,17.43
2022-11-26T20:30:48.115Z,18.27
2022-11-26T20:33:34.855Z,15.80
2022-11-26T20:36:21.650Z,17.93
2022-11-26T20:39:07.061Z,17.17
2022-11-26T20:41:52.206Z,17.27
2022-11-26T20:44:37.530Z,17.20
2022-11-26T20:47:22.728Z,16.13
2022-11-26T20:50:09.095Z,15.87
2022-11-26T20:52:53.892Z,16.47
2022-11-26T20:55:38.765Z,19.57
2022-11-26T20:58:25.636Z,19.73
2022-11-26T21:01:22.699Z,19.87
2022-11-26T21:04:07.946Z,21.83
2022-11-26T21:06:52.778Z,16.90
2022-11-26T21:09:37.891Z,21.67
2022-11-26T21:12:23.398Z,21.87
2022-11-26T21:15:08.945Z,17.60
2022-11-26T21:17:54.215Z,17.13
2022-11-26T21:20:40.864Z,18.30
2022-11-26T21:23:27.166Z,18.80
2022-11-26T21:26:16.671Z,20.40
2022-11-26T21:29:02.275Z,20.67
2022-11-26T21:31:47.701Z,21.37
2022-11-26T21:34:33.211Z,23.70
2022-11-26T21:37:19.013Z,24.93
2022-11-26T21:40:04.051Z,23.60
2022-11-26T21:42:49.328Z,23.87
2022-11-26T21:45:34.680Z,22.93
2022-11-26T21:48:19.548Z,20.87
2022-11-26T21:51:09.297Z,22.63
2022-11-26T21:53:55.690Z,24.30
2022-11-26T21:56:41.141Z,26.40
2022-11-26T21:59:26.469Z,25.43
2022-11-26T22:02:12.889Z,26.10
2022-11-26T22:04:58.300Z,27.90
2022-11-26T22:07:44.079Z,30.87
2022-11-26T22:10:33.308Z,26.60
2022-11-26T22:13:21.267Z,27.47
2022-11-26T22:16:08.248Z,27.70
2022-11-26T22:18:53.989Z,26.83
2022-11-26T22:21:41.014Z,26.07
2022-11-26T22:24:25.933Z,24.50
2022-11-26T22:27:11.172Z,23.53
2022-11-26T22:29:55.968Z,23.63
2022-11-26T22:32:41.500Z,24.23
2022-11-26T22:35:26.754Z,25.07
2022-11-26T22:38:11.946Z,25.20
2022-11-26T22:41:01.235Z,26.03
2022-11-26T22:43:46.652Z,24.10
2022-11-26T22:46:32.517Z,21.37
2022-11-26T22:49:17.962Z,19.90
2022-11-26T22:52:03.450Z,17.17
2022-11-26T22:54:48.578Z,15.87
2022-11-26T22:57:34.435Z,16.13
2022-11-26T23:00:46.952Z,16.03
2022-11-26T23:03:33.933Z,16.30
2022-11-26T23:06:22.511Z,16.43
2022-11-26T23:09:09.175Z,16.40
2022-11-26T23:11:54.202Z,16.47
2022-11-26T23:14:39.378Z,18.57
2022-11-26T23:17:24.319Z,18.67
2022-11-26T23:20:10.283Z,17.57
2022-11-26T23:22:55.095Z,17.63
2022-11-26T23:25:41.107Z,18.10
2022-11-26T23:28:26.417Z,18.20
2022-11-26T23:31:24.426Z,18.73
2022-11-26T23:34:10.071Z,18.17
2022-11-26T23:36:55.295Z,18.87
2022-11-26T23:39:40.772Z,17.67
2022-11-26T23:42:25.982Z,18.33
2022-11-26T23:45:11.312Z,18.13
2022-11-26T23:47:56.913Z,19.00
2022-11-26T23:50:42.766Z,19.23
2022-11-26T23:53:28.038Z,19.47
2022-11-26T23:56:19.420Z,19.13
2022-11-26T23:59:05.123Z,19.83
